sensor_id;sensor_type;location;lat;lon;timestamp;pressure;altitude;pressure_sealevel;temperature;humidity
69593;BME280;56796;50.122;14.468;2023-04-07T00:14:00;981.23;;;3.35;63.37
69593;BME280;56796;50.122;14.468;2023-04-07T00:33:26;981.13;;;3.33;63.14
69593;BME280;56796;50.122;14.468;2023-04-07T00:52:52;980.96;;;3;65.59
69593;BME280;56796;50.122;14.468;2023-04-07T01:12:17;980.8;;;2.93;65.7
69593;BME280;56796;50.122;14.468;2023-04-07T01:31:42;980.78;;;2.75;67.48
69593;BME280;56796;50.122;14.468;2023-04-07T01:51:07;980.68;;;2.57;69.53
69593;BME280;56796;50.122;14.468;2023-04-07T02:10:34;980.55;;;2.42;69.72
69593;BME280;56796;50.122;14.468;2023-04-07T02:29:59;980.42;;;2.44;70.27
69593;BME280;56796;50.122;14.468;2023-04-07T02:49:25;980.28;;;2.26;71.49
69593;BME280;56796;50.122;14.468;2023-04-07T03:08:51;980.23;;;2.14;72.56
69593;BME280;56796;50.122;14.468;2023-04-07T03:28:16;980.18;;;2.13;73.13
69593;BME280;56796;50.122;14.468;2023-04-07T03:47:42;980.11;;;2.18;72.98
69593;BME280;56796;50.122;14.468;2023-04-07T04:07:08;980.1;;;2.17;73.31
69593;BME280;56796;50.122;14.468;2023-04-07T04:26:34;980.1;;;2.18;74.56
69593;BME280;56796;50.122;14.468;2023-04-07T04:46:00;980.12;;;1.96;75.05
69593;BME280;56796;50.122;14.468;2023-04-07T05:05:26;980.11;;;2.22;74.4
69593;BME280;56796;50.122;14.468;2023-04-07T05:24:52;980.07;;;2.53;74.04
69593;BME280;56796;50.122;14.468;2023-04-07T05:44:19;979.98;;;3.25;71.99
69593;BME280;56796;50.122;14.468;2023-04-07T06:03:46;980.01;;;3.74;70.04
69593;BME280;56796;50.122;14.468;2023-04-07T06:23:14;979.99;;;4.44;68.99
69593;BME280;56796;50.122;14.468;2023-04-07T06:42:48;979.97;;;5.55;65.95
69593;BME280;56796;50.122;14.468;2023-04-07T07:02:17;979.72;;;8.97;55.94
69593;BME280;56796;50.122;14.468;2023-04-07T07:21:53;979.83;;;8.92;53.1
69593;BME280;56796;50.122;14.468;2023-04-07T07:41:16;979.95;;;7.82;52.71
69593;BME280;56796;50.122;14.468;2023-04-07T08:00:40;979.97;;;8.39;52.3
69593;BME280;56796;50.122;14.468;2023-04-07T08:20:06;980.04;;;8.41;52.83
69593;BME280;56796;50.122;14.468;2023-04-07T08:39:30;980.12;;;8.29;52.06
69593;BME280;56796;50.122;14.468;2023-04-07T08:58:57;980.13;;;8.37;50.57
69593;BME280;56796;50.122;14.468;2023-04-07T09:18:22;980.06;;;7.71;51.74
69593;BME280;56796;50.122;14.468;2023-04-07T09:37:50;980;;;8.22;51.25
69593;BME280;56796;50.122;14.468;2023-04-07T09:57:14;979.94;;;8.87;50.03
69593;BME280;56796;50.122;14.468;2023-04-07T10:16:43;979.95;;;8.63;49.68
69593;BME280;56796;50.122;14.468;2023-04-07T10:36:07;979.81;;;8.39;50.22
69593;BME280;56796;50.122;14.468;2023-04-07T10:55:34;979.72;;;8.38;48.31
69593;BME280;56796;50.122;14.468;2023-04-07T11:14:58;979.66;;;8.49;49.17
69593;BME280;56796;50.122;14.468;2023-04-07T11:34:28;979.61;;;8.7;48.94
69593;BME280;56796;50.122;14.468;2023-04-07T11:53:53;979.47;;;9.13;48.84
69593;BME280;56796;50.122;14.468;2023-04-07T12:13:18;979.45;;;9.95;49.25
69593;BME280;56796;50.122;14.468;2023-04-07T12:32:46;979.4;;;9.05;50.88
69593;BME280;56796;50.122;14.468;2023-04-07T12:52:10;979.4;;;9.57;49.38
69593;BME280;56796;50.122;14.468;2023-04-07T13:11:37;979.42;;;9.57;50.31
69593;BME280;56796;50.122;14.468;2023-04-07T13:31:01;979.39;;;8.83;52.3
69593;BME280;56796;50.122;14.468;2023-04-07T13:50:25;979.27;;;9.07;53.45
69593;BME280;56796;50.122;14.468;2023-04-07T14:09:52;979.26;;;9.28;51.97
69593;BME280;56796;50.122;14.468;2023-04-07T14:29:19;979.09;;;9.22;54.14
69593;BME280;56796;50.122;14.468;2023-04-07T14:48:44;978.98;;;9.39;54.87
69593;BME280;56796;50.122;14.468;2023-04-07T15:08:10;979.11;;;8.47;60.96
69593;BME280;56796;50.122;14.468;2023-04-07T15:27:33;979.07;;;8.09;63.82
69593;BME280;56796;50.122;14.468;2023-04-07T15:46:59;978.95;;;8.2;63
69593;BME280;56796;50.122;14.468;2023-04-07T16:06:26;978.98;;;8.26;61.74
69593;BME280;56796;50.122;14.468;2023-04-07T16:25:54;978.98;;;8.37;61.35
69593;BME280;56796;50.122;14.468;2023-04-07T16:45:20;979.06;;;8.08;62.07
69593;BME280;56796;50.122;14.468;2023-04-07T17:04:46;979.27;;;7.85;62.62
69593;BME280;56796;50.122;14.468;2023-04-07T17:24:12;979.48;;;7.75;63.37
69593;BME280;56796;50.122;14.468;2023-04-07T17:43:38;979.65;;;7.66;64.85
69593;BME280;56796;50.122;14.468;2023-04-07T18:03:03;979.81;;;7.42;67.31
69593;BME280;56796;50.122;14.468;2023-04-07T18:22:29;979.89;;;7.17;70.04
69593;BME280;56796;50.122;14.468;2023-04-07T18:41:55;980.09;;;7.04;69.85
69593;BME280;56796;50.122;14.468;2023-04-07T19:01:20;980.19;;;7;70.35
69593;BME280;56796;50.122;14.468;2023-04-07T19:20:48;980.25;;;6.54;73.67
69593;BME280;56796;50.122;14.468;2023-04-07T19:40:05;980.44;;;5.8;80.14
69593;BME280;56796;50.122;14.468;2023-04-07T19:59:30;980.52;;;5.58;82.23
69593;BME280;56796;50.122;14.468;2023-04-07T20:19:01;980.54;;;5.39;84.1
69593;BME280;56796;50.122;14.468;2023-04-07T20:38:15;980.61;;;5.19;84.86
69593;BME280;56796;50.122;14.468;2023-04-07T20:57:41;980.59;;;5.09;83.68
69593;BME280;56796;50.122;14.468;2023-04-07T21:17:07;980.57;;;5.04;82.65
69593;BME280;56796;50.122;14.468;2023-04-07T21:36:33;980.44;;;4.92;83.34
69593;BME280;56796;50.122;14.468;2023-04-07T21:55:58;980.44;;;4.65;86.75
69593;BME280;56796;50.122;14.468;2023-04-07T22:15:24;980.46;;;4.52;89.69
69593;BME280;56796;50.122;14.468;2023-04-07T22:34:49;980.47;;;4.31;92.74
69593;BME280;56796;50.122;14.468;2023-04-07T22:54:14;980.48;;;4.15;95.76
69593;BME280;56796;50.122;14.468;2023-04-07T23:13:40;980.53;;;4.02;97.4
69593;BME280;56796;50.122;14.468;2023-04-07T23:33:05;980.55;;;3.99;98.64
69593;BME280;56796;50.122;14.468;2023-04-07T23:52:31;980.51;;;3.88;99.56
